createdAt,value
2023-10-21T00:01:40.042Z,59.66
2023-10-21T00:04:07.188Z,59.66
2023-10-21T00:06:35.297Z,59.51
2023-10-21T00:09:02.407Z,59.49
2023-10-21T00:11:29.714Z,59.46
2023-10-21T00:13:58.092Z,59.37
2023-10-21T00:16:25.230Z,59.18
2023-10-21T00:18:52.202Z,59.15
2023-10-21T00:21:19.290Z,59.04
2023-10-21T00:23:46.428Z,58.99
2023-10-21T00:26:13.512Z,58.99
2023-10-21T00:28:41.347Z,58.97
2023-10-21T00:31:08.325Z,59.01
2023-10-21T00:33:36.117Z,59.00
2023-10-21T00:36:04.699Z,59.11
2023-10-21T00:38:31.716Z,59.17
2023-10-21T00:40:58.706Z,59.17
2023-10-21T00:43:43.011Z,59.22
2023-10-21T00:46:16.749Z,59.19
2023-10-21T00:48:44.242Z,59.19
2023-10-21T00:51:11.626Z,59.10
2023-10-21T00:53:38.903Z,59.14
2023-10-21T00:56:09.207Z,59.16
2023-10-21T00:58:36.706Z,58.80
2023-10-21T01:01:09.104Z,58.12
2023-10-21T01:03:36.982Z,57.53
2023-10-21T01:06:04.611Z,57.13
2023-10-21T01:08:42.953Z,56.59
2023-10-21T01:11:12.391Z,56.31
2023-10-21T01:13:39.841Z,56.20
2023-10-21T01:16:06.685Z,56.10
2023-10-21T01:18:35.016Z,55.86
2023-10-21T01:21:03.563Z,55.67
2023-10-21T01:23:31.403Z,55.34
2023-10-21T01:25:58.461Z,55.16
2023-10-21T01:28:25.924Z,55.60
2023-10-21T01:30:53.167Z,55.93
2023-10-21T01:33:20.255Z,56.10
2023-10-21T01:35:47.797Z,56.82
2023-10-21T01:38:15.947Z,57.21
2023-10-21T01:40:43.205Z,57.61
2023-10-21T01:43:10.244Z,57.87
2023-10-21T01:45:38.020Z,58.26
2023-10-21T01:48:06.239Z,58.32
2023-10-21T01:50:33.138Z,58.25
2023-10-21T01:53:00.063Z,57.94
2023-10-21T01:55:27.026Z,57.67
2023-10-21T01:57:53.960Z,57.17
2023-10-21T02:00:21.234Z,56.56
2023-10-21T02:02:51.951Z,55.70
2023-10-21T02:05:20.015Z,55.10
2023-10-21T02:07:47.482Z,54.72
2023-10-21T02:10:14.409Z,54.68
2023-10-21T02:12:41.581Z,54.83
2023-10-21T02:15:18.514Z,54.91
2023-10-21T02:17:45.654Z,54.90
2023-10-21T02:20:13.807Z,54.71
2023-10-21T02:22:40.827Z,54.73
2023-10-21T02:25:13.843Z,54.64
2023-10-21T02:27:42.222Z,54.53
2023-10-21T02:30:11.687Z,54.14
2023-10-21T02:32:38.708Z,53.99
2023-10-21T02:35:06.601Z,53.68
2023-10-21T02:37:33.528Z,53.89
2023-10-21T02:40:00.591Z,54.42
2023-10-21T02:42:27.467Z,55.05
2023-10-21T02:44:54.315Z,55.53
2023-10-21T02:47:21.407Z,55.96
2023-10-21T02:49:48.658Z,56.42
2023-10-21T02:52:15.726Z,56.93
2023-10-21T02:54:42.661Z,57.45
2023-10-21T02:57:09.840Z,57.40
2023-10-21T02:59:36.910Z,57.03
2023-10-21T03:02:04.138Z,57.14
2023-10-21T03:04:31.274Z,57.19
2023-10-21T03:06:58.301Z,57.29
2023-10-21T03:09:26.730Z,57.46
2023-10-21T03:11:54.422Z,57.19
2023-10-21T03:14:21.805Z,56.60
2023-10-21T03:16:49.579Z,56.70
2023-10-21T03:19:16.708Z,57.19
2023-10-21T03:21:45.902Z,57.55
2023-10-21T03:24:13.170Z,57.82
2023-10-21T03:26:40.223Z,57.87
2023-10-21T03:29:09.877Z,58.06
2023-10-21T03:31:38.536Z,58.39
2023-10-21T03:34:05.654Z,58.40
2023-10-21T03:36:32.681Z,58.33
2023-10-21T03:38:59.647Z,58.13
2023-10-21T03:41:26.886Z,57.97
2023-10-21T03:43:53.840Z,58.01
2023-10-21T03:46:22.372Z,58.33
2023-10-21T03:48:49.509Z,58.41
2023-10-21T03:51:16.718Z,58.70
2023-10-21T03:53:47.059Z,58.83
2023-10-21T03:56:13.947Z,58.82
2023-10-21T03:58:41.526Z,58.81
2023-10-21T04:01:08.710Z,58.59
2023-10-21T04:03:36.293Z,58.41
2023-10-21T04:06:03.300Z,58.21
2023-10-21T04:08:30.749Z,58.10
2023-10-21T04:10:57.688Z,58.13
2023-10-21T04:13:25.697Z,57.98
2023-10-21T04:15:52.776Z,57.85
2023-10-21T04:18:19.950Z,58.02
2023-10-21T04:20:47.326Z,58.11
2023-10-21T04:23:14.466Z,57.85
2023-10-21T04:25:41.414Z,57.67
2023-10-21T04:28:08.399Z,57.45
2023-10-21T04:30:35.919Z,57.33
2023-10-21T04:33:03.144Z,56.81
2023-10-21T04:35:30.210Z,56.61
2023-10-21T04:37:58.579Z,56.46
2023-10-21T04:40:25.647Z,55.94
2023-10-21T04:42:52.589Z,55.50
2023-10-21T04:45:19.544Z,55.16
2023-10-21T04:47:46.490Z,55.02
2023-10-21T04:50:13.421Z,55.11
2023-10-21T04:52:40.874Z,55.57
2023-10-21T04:55:08.418Z,55.74
2023-10-21T04:57:35.380Z,55.55
2023-10-21T05:00:04.253Z,55.33
2023-10-21T05:02:31.436Z,55.14
2023-10-21T05:04:58.579Z,54.87
2023-10-21T05:07:25.501Z,54.46
2023-10-21T05:09:52.467Z,54.06
2023-10-21T05:12:20.332Z,53.67
2023-10-21T05:14:47.236Z,53.63
2023-10-21T05:17:14.398Z,53.43
2023-10-21T05:19:41.460Z,53.15
2023-10-21T05:22:08.496Z,52.79
2023-10-21T05:24:35.886Z,52.63
2023-10-21T05:27:03.650Z,52.53
2023-10-21T05:29:31.179Z,52.30
2023-10-21T05:31:58.525Z,52.28
2023-10-21T05:34:25.657Z,52.26
2023-10-21T05:36:52.736Z,52.17
2023-10-21T05:39:19.929Z,52.04
2023-10-21T05:41:47.227Z,51.93
2023-10-21T05:44:14.196Z,52.51
2023-10-21T05:46:41.200Z,52.72
2023-10-21T05:49:08.300Z,52.68
2023-10-21T05:51:35.231Z,52.68
2023-10-21T05:54:02.376Z,52.58
2023-10-21T05:56:29.359Z,52.51
2023-10-21T05:58:56.149Z,52.41
2023-10-21T06:01:23.191Z,52.18
2023-10-21T06:03:50.312Z,52.17
2023-10-21T06:06:18.070Z,52.07
2023-10-21T06:08:45.583Z,52.04
2023-10-21T06:11:13.127Z,51.89
2023-10-21T06:13:40.283Z,51.90
2023-10-21T06:16:07.643Z,51.78
2023-10-21T06:18:34.747Z,51.67
2023-10-21T06:21:01.655Z,51.57
2023-10-21T06:23:28.897Z,51.29
2023-10-21T06:25:56.181Z,51.14
2023-10-21T06:28:24.293Z,51.01
2023-10-21T06:30:51.461Z,50.62
2023-10-21T06:33:18.778Z,50.40
2023-10-21T06:35:45.974Z,50.22
2023-10-21T06:38:12.902Z,50.11
2023-10-21T06:40:52.494Z,49.97
2023-10-21T06:43:25.926Z,49.74
2023-10-21T06:45:53.181Z,49.68
2023-10-21T06:48:20.197Z,49.54
2023-10-21T06:50:47.064Z,49.42
2023-10-21T06:53:15.038Z,49.30
2023-10-21T06:55:45.378Z,49.25
2023-10-21T06:58:12.618Z,49.01
2023-10-21T07:00:39.557Z,48.92
2023-10-21T07:03:06.946Z,48.97
2023-10-21T07:05:34.808Z,48.80
2023-10-21T07:08:02.560Z,48.53
2023-10-21T07:10:31.550Z,48.21
2023-10-21T07:12:58.810Z,47.94
2023-10-21T07:15:28.695Z,47.55
2023-10-21T07:17:57.447Z,47.06
2023-10-21T07:20:26.653Z,47.51
2023-10-21T07:22:54.274Z,47.76
2023-10-21T07:25:21.302Z,47.96
2023-10-21T07:27:48.567Z,48.18
2023-10-21T07:30:16.027Z,48.45
2023-10-21T07:32:43.607Z,48.98
2023-10-21T07:35:10.662Z,49.89
2023-10-21T07:37:38.189Z,51.21
2023-10-21T07:40:07.518Z,52.06
2023-10-21T07:42:34.445Z,52.51
2023-10-21T07:45:01.623Z,52.98
2023-10-21T07:47:28.737Z,53.21
2023-10-21T07:49:56.392Z,53.15
2023-10-21T07:52:23.689Z,53.08
2023-10-21T07:54:50.768Z,53.51
2023-10-21T07:57:18.038Z,53.74
2023-10-21T07:59:45.598Z,53.47
2023-10-21T08:02:13.751Z,52.82
2023-10-21T08:04:41.186Z,53.40
2023-10-21T08:07:08.596Z,53.34
2023-10-21T08:09:37.226Z,53.25
2023-10-21T08:12:04.297Z,53.18
2023-10-21T08:14:32.998Z,53.13
2023-10-21T08:17:01.279Z,52.94
2023-10-21T08:19:29.986Z,52.97
2023-10-21T08:21:58.241Z,53.14
2023-10-21T08:24:25.266Z,53.03
2023-10-21T08:26:52.274Z,53.02
2023-10-21T08:29:20.744Z,52.79
2023-10-21T08:31:48.051Z,52.58
2023-10-21T08:34:15.301Z,52.40
2023-10-21T08:36:42.346Z,52.24
2023-10-21T08:39:10.565Z,52.14
2023-10-21T08:41:40.544Z,52.06
2023-10-21T08:44:08.421Z,52.04
2023-10-21T08:46:38.529Z,51.79
2023-10-21T08:49:05.949Z,51.60
2023-10-21T08:51:34.011Z,51.41
2023-10-21T08:54:03.922Z,51.15
2023-10-21T08:56:31.724Z,50.85
2023-10-21T08:58:58.780Z,50.83
2023-10-21T09:01:25.774Z,51.19
2023-10-21T09:03:53.055Z,51.37
2023-10-21T09:06:20.793Z,51.56
2023-10-21T09:08:48.740Z,51.46
2023-10-21T09:11:21.489Z,51.41
2023-10-21T09:13:49.769Z,51.14
2023-10-21T09:16:21.290Z,50.84
2023-10-21T09:18:57.981Z,50.65
2023-10-21T09:21:35.014Z,50.67
2023-10-21T09:24:03.574Z,50.59
2023-10-21T09:26:35.001Z,50.21
2023-10-21T09:29:06.774Z,50.18
2023-10-21T09:31:53.919Z,50.39
2023-10-21T09:34:30.347Z,50.31
2023-10-21T09:37:02.694Z,50.36
2023-10-21T09:39:41.216Z,50.16
2023-10-21T09:42:09.452Z,50.13
2023-10-21T09:44:36.993Z,50.16
2023-10-21T09:47:08.072Z,50.11
2023-10-21T09:49:39.768Z,49.98
2023-10-21T09:52:16.551Z,49.93
2023-10-21T09:54:45.499Z,50.12
2023-10-21T09:57:13.293Z,50.19
2023-10-21T09:59:40.590Z,50.08
2023-10-21T10:02:07.807Z,50.09
2023-10-21T10:04:36.495Z,49.98
2023-10-21T10:07:07.108Z,49.87
2023-10-21T10:09:40.600Z,49.80
2023-10-21T10:12:17.037Z,49.71
2023-10-21T10:14:44.227Z,49.65
2023-10-21T10:17:14.318Z,49.69
2023-10-21T10:19:44.358Z,49.85
2023-10-21T10:22:21.814Z,49.87
2023-10-21T10:24:56.529Z,50.05
2023-10-21T10:27:37.862Z,50.17
2023-10-21T10:30:20.346Z,50.24
2023-10-21T10:32:50.857Z,50.19
2023-10-21T10:35:31.158Z,50.17
2023-10-21T10:38:02.404Z,50.02
2023-10-21T10:40:36.937Z,50.01
2023-10-21T10:43:06.664Z,49.76
2023-10-21T10:45:34.062Z,49.66
2023-10-21T10:48:02.913Z,49.58
2023-10-21T10:50:37.516Z,49.36
2023-10-21T10:53:14.604Z,49.18
2023-10-21T10:55:43.825Z,49.28
2023-10-21T10:58:12.437Z,49.41
2023-10-21T11:00:42.288Z,49.50
2023-10-21T11:03:09.651Z,49.19
2023-10-21T11:05:41.204Z,49.03
2023-10-21T11:08:09.884Z,48.80
2023-10-21T11:10:38.158Z,48.73
2023-10-21T11:13:05.912Z,48.77
2023-10-21T11:15:33.545Z,48.93
2023-10-21T11:18:05.479Z,48.94
2023-10-21T11:20:32.889Z,48.97
2023-10-21T11:23:10.580Z,48.92
2023-10-21T11:25:37.535Z,49.05
2023-10-21T11:28:06.261Z,49.21
2023-10-21T11:30:36.239Z,49.43
2023-10-21T11:33:11.230Z,49.36
2023-10-21T11:35:42.319Z,49.33
2023-10-21T11:38:09.521Z,49.16
2023-10-21T11:40:36.934Z,49.04
2023-10-21T11:43:07.103Z,48.91
2023-10-21T11:45:34.209Z,48.87
2023-10-21T11:48:01.759Z,48.87
2023-10-21T11:50:34.621Z,49.11
2023-10-21T11:53:03.638Z,49.07
2023-10-21T11:55:50.013Z,49.08
2023-10-21T11:58:42.991Z,48.89
2023-10-21T12:01:31.679Z,48.91
2023-10-21T12:04:01.489Z,48.80
2023-10-21T12:06:31.570Z,48.57
2023-10-21T12:09:17.572Z,48.62
2023-10-21T12:12:07.589Z,48.69
2023-10-21T12:14:52.972Z,48.83
2023-10-21T12:17:26.275Z,49.02
2023-10-21T12:19:56.024Z,49.17
2023-10-21T12:22:25.928Z,49.21
2023-10-21T12:25:11.865Z,49.31
2023-10-21T12:27:41.826Z,49.63
2023-10-21T12:30:28.565Z,49.89
2023-10-21T12:33:14.842Z,50.01
2023-10-21T12:35:53.761Z,50.05
2023-10-21T12:38:23.997Z,50.24
2023-10-21T12:41:09.673Z,50.28
2023-10-21T12:43:37.161Z,50.36
2023-10-21T12:46:30.404Z,50.43
2023-10-21T12:49:06.938Z,50.51
2023-10-21T12:51:42.141Z,50.67
2023-10-21T12:54:14.690Z,50.81
2023-10-21T12:56:42.650Z,50.93
2023-10-21T12:59:09.790Z,50.87
2023-10-21T13:01:39.122Z,50.99
2023-10-21T13:04:06.622Z,51.05
2023-10-21T13:06:34.277Z,51.19
2023-10-21T13:09:01.620Z,51.42
2023-10-21T13:11:29.118Z,51.49
2023-10-21T13:13:56.081Z,51.55
2023-10-21T13:16:23.890Z,51.67
2023-10-21T13:18:52.050Z,51.78
2023-10-21T13:21:19.628Z,51.82
2023-10-21T13:23:46.950Z,51.79
2023-10-21T13:26:14.058Z,51.92
2023-10-21T13:28:41.412Z,51.95
2023-10-21T13:31:08.997Z,51.95
2023-10-21T13:33:36.264Z,51.86
2023-10-21T13:36:06.809Z,51.63
2023-10-21T13:38:33.798Z,51.62
2023-10-21T13:41:00.766Z,51.68
2023-10-21T13:43:27.730Z,51.70
2023-10-21T13:45:54.688Z,51.85
2023-10-21T13:48:21.793Z,51.74
2023-10-21T13:50:54.157Z,51.88
2023-10-21T13:53:26.788Z,51.92
2023-10-21T13:55:57.299Z,52.06
2023-10-21T13:58:24.211Z,52.19
2023-10-21T14:00:51.219Z,52.20
2023-10-21T14:03:25.890Z,52.24
2023-10-21T14:05:55.573Z,52.33
2023-10-21T14:08:26.434Z,52.42
2023-10-21T14:10:57.061Z,52.61
2023-10-21T14:13:32.897Z,52.84
2023-10-21T14:16:00.079Z,52.95
2023-10-21T14:18:28.984Z,52.90
2023-10-21T14:20:56.125Z,52.95
2023-10-21T14:23:24.372Z,53.05
2023-10-21T14:25:54.254Z,53.02
2023-10-21T14:28:21.959Z,53.04
2023-10-21T14:30:50.534Z,53.30
2023-10-21T14:33:22.106Z,53.32
2023-10-21T14:35:49.655Z,53.41
2023-10-21T14:38:16.808Z,53.49
2023-10-21T14:40:44.457Z,53.62
2023-10-21T14:43:15.164Z,53.78
2023-10-21T14:45:43.796Z,53.93
2023-10-21T14:48:11.372Z,54.09
2023-10-21T14:50:39.714Z,54.25
2023-10-21T14:53:08.978Z,54.40
2023-10-21T14:55:51.828Z,54.68
2023-10-21T14:58:26.054Z,54.92
2023-10-21T15:00:53.797Z,54.95
2023-10-21T15:03:22.117Z,55.07
2023-10-21T15:05:49.774Z,55.23
2023-10-21T15:08:21.508Z,55.43
2023-10-21T15:10:49.164Z,55.60
2023-10-21T15:13:16.137Z,55.81
2023-10-21T15:15:43.743Z,55.76
2023-10-21T15:18:11.095Z,55.97
2023-10-21T15:20:38.217Z,55.98
2023-10-21T15:23:04.953Z,56.23
2023-10-21T15:25:31.899Z,56.33
2023-10-21T15:27:59.330Z,56.32
2023-10-21T15:30:26.502Z,56.43
2023-10-21T15:32:56.900Z,56.54
2023-10-21T15:35:24.497Z,56.50
2023-10-21T15:37:51.481Z,56.56
2023-10-21T15:40:20.084Z,56.80
2023-10-21T15:42:47.159Z,56.67
2023-10-21T15:45:14.764Z,56.81
2023-10-21T15:47:42.196Z,57.05
2023-10-21T15:50:10.749Z,57.24
2023-10-21T15:52:38.010Z,57.25
2023-10-21T15:55:05.784Z,57.20
2023-10-21T15:57:33.694Z,57.47
2023-10-21T16:00:03.411Z,57.50
2023-10-21T16:02:37.802Z,57.54
2023-10-21T16:05:05.334Z,57.59
2023-10-21T16:09:59.682Z,57.93
2023-10-21T16:12:28.537Z,57.92
2023-10-21T16:14:55.692Z,58.00
2023-10-21T16:17:23.329Z,58.21
2023-10-21T16:19:50.293Z,58.10
2023-10-21T16:22:17.328Z,58.22
2023-10-21T16:24:44.417Z,58.27
2023-10-21T16:27:11.489Z,58.41
2023-10-21T16:29:38.902Z,58.45
2023-10-21T16:32:07.410Z,58.42
2023-10-21T16:34:34.368Z,58.64
2023-10-21T16:37:01.548Z,58.60
2023-10-21T16:39:28.720Z,58.64
2023-10-21T16:41:56.060Z,58.68
2023-10-21T16:44:23.167Z,58.90
2023-10-21T16:46:50.162Z,58.88
2023-10-21T16:49:17.082Z,58.85
2023-10-21T16:51:44.505Z,59.00
2023-10-21T16:54:13.514Z,58.91
2023-10-21T16:56:40.472Z,59.08
2023-10-21T16:59:07.823Z,58.93
2023-10-21T17:01:34.918Z,58.96
2023-10-21T17:04:02.008Z,58.79
2023-10-21T17:06:31.619Z,58.74
2023-10-21T17:09:00.408Z,58.52
2023-10-21T17:11:27.330Z,58.58
2023-10-21T17:13:56.849Z,58.41
2023-10-21T17:16:25.846Z,58.44
2023-10-21T17:18:53.139Z,58.53
2023-10-21T17:21:20.077Z,58.11
2023-10-21T17:23:49.590Z,58.16
2023-10-21T17:26:17.940Z,58.20
2023-10-21T17:28:44.977Z,58.16
2023-10-21T17:31:12.286Z,58.16
2023-10-21T17:33:50.012Z,57.94
2023-10-21T17:36:18.508Z,57.66
2023-10-21T17:38:45.517Z,57.21
2023-10-21T17:41:12.326Z,56.55
2023-10-21T17:43:39.749Z,56.31
2023-10-21T17:46:06.722Z,55.80
2023-10-21T17:48:34.027Z,55.43
2023-10-21T17:51:01.223Z,54.91
2023-10-21T17:53:28.556Z,54.73
2023-10-21T17:55:55.718Z,54.27
2023-10-21T17:58:22.753Z,53.94
2023-10-21T18:00:49.840Z,53.27
2023-10-21T18:03:17.285Z,52.85
2023-10-21T18:05:46.462Z,52.50
2023-10-21T18:08:13.808Z,51.95
2023-10-21T18:10:40.745Z,51.47
2023-10-21T18:13:07.627Z,51.22
2023-10-21T18:15:34.568Z,50.82
2023-10-21T18:18:03.199Z,50.64
2023-10-21T18:20:30.369Z,50.58
2023-10-21T18:22:59.154Z,50.21
2023-10-21T18:25:27.546Z,50.08
2023-10-21T18:27:55.677Z,49.89
2023-10-21T18:30:23.425Z,49.58
2023-10-21T18:32:50.783Z,49.56
2023-10-21T18:35:17.866Z,49.33
2023-10-21T18:37:44.930Z,49.11
2023-10-21T18:40:12.086Z,48.88
2023-10-21T18:42:39.005Z,48.82
2023-10-21T18:45:07.009Z,48.52
2023-10-21T18:47:34.234Z,48.53
2023-10-21T18:50:01.305Z,48.43
2023-10-21T18:52:28.512Z,48.03
2023-10-21T18:54:55.387Z,48.04
2023-10-21T18:57:24.380Z,47.81
2023-10-21T18:59:54.196Z,47.94
2023-10-21T19:02:21.640Z,47.65
2023-10-21T19:04:48.881Z,47.77
2023-10-21T19:07:15.805Z,47.87
2023-10-21T19:09:43.518Z,47.93
2023-10-21T19:12:10.733Z,48.03
2023-10-21T19:14:38.828Z,48.03
2023-10-21T19:17:05.905Z,48.10
2023-10-21T19:19:34.256Z,48.23
2023-10-21T19:22:01.301Z,48.24
2023-10-21T19:24:28.467Z,48.28
2023-10-21T19:26:55.445Z,48.29
2023-10-21T19:29:22.357Z,48.22
2023-10-21T19:31:50.785Z,48.01
2023-10-21T19:34:18.192Z,48.01
2023-10-21T19:36:45.696Z,48.05
2023-10-21T19:39:13.199Z,47.96
2023-10-21T19:41:40.436Z,47.94
2023-10-21T19:44:25.140Z,48.23
2023-10-21T19:47:04.333Z,48.36
2023-10-21T19:49:34.439Z,48.60
2023-10-21T19:52:03.133Z,48.93
2023-10-21T19:54:32.145Z,49.01
2023-10-21T19:56:59.081Z,49.13
2023-10-21T19:59:26.224Z,49.08
2023-10-21T20:01:54.905Z,48.98
2023-10-21T20:04:21.971Z,48.95
2023-10-21T20:06:49.266Z,49.00
2023-10-21T20:09:16.607Z,48.98
2023-10-21T20:11:45.253Z,48.97
2023-10-21T20:14:13.543Z,48.84
2023-10-21T20:16:40.790Z,49.11
2023-10-21T20:19:07.711Z,49.20
2023-10-21T20:21:40.304Z,49.48
2023-10-21T20:24:07.956Z,49.54
2023-10-21T20:26:35.536Z,49.59
2023-10-21T20:29:02.870Z,49.50
2023-10-21T20:31:32.270Z,49.56
2023-10-21T20:34:00.549Z,49.34
2023-10-21T20:36:28.490Z,49.20
2023-10-21T20:38:56.375Z,49.28
2023-10-21T20:41:23.327Z,49.37
2023-10-21T20:43:52.114Z,49.44
2023-10-21T20:46:19.368Z,49.30
2023-10-21T20:48:46.576Z,49.51
2023-10-21T20:51:17.184Z,49.28
2023-10-21T20:53:44.250Z,49.10
2023-10-21T20:56:17.897Z,49.01
2023-10-21T20:58:44.831Z,48.76
2023-10-21T21:01:13.184Z,48.57
2023-10-21T21:03:43.528Z,47.92
2023-10-21T21:06:10.598Z,47.99
2023-10-21T21:08:37.736Z,47.83
2023-10-21T21:11:05.302Z,48.13
2023-10-21T21:13:32.245Z,48.13
2023-10-21T21:15:59.262Z,47.93
2023-10-21T21:18:26.772Z,47.55
2023-10-21T21:20:55.946Z,47.53
2023-10-21T21:23:23.078Z,47.42
2023-10-21T21:25:50.129Z,47.34
2023-10-21T21:28:17.796Z,47.18
2023-10-21T21:30:52.057Z,47.36
2023-10-21T21:33:22.477Z,47.33
2023-10-21T21:35:59.414Z,47.45
2023-10-21T21:38:27.581Z,47.70
2023-10-21T21:40:54.653Z,47.97
2023-10-21T21:43:21.915Z,48.01
2023-10-21T21:45:49.073Z,48.15
2023-10-21T21:48:16.213Z,48.13
2023-10-21T21:50:43.125Z,48.06
2023-10-21T21:53:12.115Z,48.02
2023-10-21T21:55:41.418Z,47.75
2023-10-21T21:58:08.260Z,47.77
2023-10-21T22:00:40.694Z,47.70
2023-10-21T22:03:07.857Z,47.33
2023-10-21T22:05:36.043Z,47.43
2023-10-21T22:08:04.651Z,47.27
2023-10-21T22:10:33.459Z,47.19
2023-10-21T22:13:01.297Z,47.20
2023-10-21T22:15:28.551Z,47.15
2023-10-21T22:17:55.737Z,46.96
2023-10-21T22:20:24.350Z,47.11
2023-10-21T22:22:54.122Z,47.03
2023-10-21T22:25:39.190Z,46.79
2023-10-21T22:28:12.574Z,46.85
2023-10-21T22:30:41.456Z,46.72
2023-10-21T22:33:08.722Z,46.73
2023-10-21T22:35:36.216Z,46.50
2023-10-21T22:38:03.624Z,46.40
2023-10-21T22:40:30.570Z,46.37
2023-10-21T22:42:57.733Z,46.30
2023-10-21T22:45:26.297Z,46.41
2023-10-21T22:47:53.461Z,46.49
2023-10-21T22:50:21.950Z,47.10
2023-10-21T22:52:48.992Z,48.04
2023-10-21T22:55:16.143Z,49.28
2023-10-21T22:57:45.207Z,50.10
2023-10-21T23:00:13.297Z,50.55
2023-10-21T23:02:43.349Z,51.00
2023-10-21T23:05:11.020Z,51.48
2023-10-21T23:07:38.752Z,51.89
2023-10-21T23:10:22.682Z,52.08
2023-10-21T23:12:50.982Z,52.48
2023-10-21T23:15:18.725Z,52.62
2023-10-21T23:17:46.547Z,52.83
2023-10-21T23:20:13.958Z,53.11
2023-10-21T23:22:41.219Z,53.72
2023-10-21T23:25:11.336Z,53.93
2023-10-21T23:27:39.286Z,54.23
2023-10-21T23:30:14.942Z,54.58
2023-10-21T23:32:42.326Z,54.92
2023-10-21T23:35:09.958Z,55.24
2023-10-21T23:37:39.508Z,55.46
2023-10-21T23:40:10.592Z,55.60
2023-10-21T23:42:39.268Z,55.80
2023-10-21T23:45:07.889Z,55.94
2023-10-21T23:47:35.726Z,56.13
2023-10-21T23:50:03.083Z,56.47
2023-10-21T23:52:31.465Z,56.61
2023-10-21T23:54:58.314Z,56.87
2023-10-21T23:57:25.333Z,56.98
2023-10-21T23:59:52.406Z,57.03
